Time;durP1;ratioP1;P1;durP2;ratioP2;P2;SDS_P1;SDS_P2;PMS_P1;PMS_P2;Temp;Humidity;BMP_temperature;BMP_pressure;BME280_temperature;BME280_humidity;BME280_pressure;Samples;Min_cycle;Max_cycle;Signal;HPM_P1;HPM_P2
2023/12/01 00:02:21;;;;;;;69.65;30.23;;;;;;;1.83;nan;94891.13;5058343;28;20112;-83
2023/12/01 00:04:47;;;;;;;70.93;29.15;;;;;;;1.61;nan;94833.34;5072263;28;20035;-83
2023/12/01 00:07:13;;;;;;;70.38;30.65;;;;;;;1.93;nan;94868.59;5061326;28;20029;-84
2023/12/01 00:09:39;;;;;;;63.15;28.75;;;;;;;1.55;nan;94824.59;5075973;28;20070;-83
2023/12/01 00:12:04;;;;;;;57.88;27.40;;;;;;;1.54;nan;94849.13;5053350;28;20033;-84
2023/12/01 00:14:30;;;;;;;67.50;27.52;;;;;;;1.68;nan;94851.56;5077288;28;20021;-83
2023/12/01 00:16:56;;;;;;;61.75;27.17;;;;;;;1.57;nan;94847.09;5063031;28;20045;-83
2023/12/01 00:19:21;;;;;;;66.72;28.10;;;;;;;1.56;nan;94830.63;5062944;28;20032;-82
2023/12/01 00:21:47;;;;;;;60.28;26.55;;;;;;;1.80;nan;94886.34;5062466;28;20034;-84
2023/12/01 00:24:12;;;;;;;56.05;27.45;;;;;;;1.21;nan;94821.94;5049727;28;20033;-84
2023/12/01 00:26:38;;;;;;;59.05;26.33;;;;;;;1.36;nan;94812.66;5054517;28;20047;-83
2023/12/01 00:29:03;;;;;;;51.40;26.70;;;;;;;1.58;nan;94830.38;5054483;28;20100;-84
2023/12/01 00:31:29;;;;;;;61.97;27.60;;;;;;;1.24;nan;94782.28;5072162;28;20033;-83
2023/12/01 00:33:54;;;;;;;60.78;26.65;;;;;;;1.33;nan;94814.91;5072242;28;20044;-84
2023/12/01 00:36:20;;;;;;;69.93;28.90;;;;;;;1.75;nan;94871.34;5048383;28;20044;-83
2023/12/01 00:38:45;;;;;;;62.38;27.17;;;;;;;1.75;nan;94879.19;5052169;28;20024;-83
2023/12/01 00:41:11;;;;;;;56.92;27.60;;;;;;;1.59;nan;94855.50;5072231;28;20041;-84
2023/12/01 00:43:37;;;;;;;59.22;25.00;;;;;;;1.50;nan;94824.47;5052973;28;20028;-84
2023/12/01 00:46:03;;;;;;;63.03;27.77;;;;;;;1.51;nan;94849.59;5079018;28;20028;-82
2023/12/01 00:48:30;;;;;;;63.95;27.70;;;;;;;1.48;nan;94854.47;5065163;28;20101;-84
2023/12/01 00:50:57;;;;;;;58.42;26.90;;;;;;;1.20;nan;94813.28;5057164;28;20113;-84
2023/12/01 00:53:22;;;;;;;56.70;26.40;;;;;;;1.42;nan;94855.38;5054959;28;20013;-83
2023/12/01 00:55:48;;;;;;;57.08;27.42;;;;;;;1.19;nan;94797.84;5054075;28;20029;-83
2023/12/01 00:58:14;;;;;;;56.38;27.25;;;;;;;1.13;nan;94781.25;5061335;28;20064;-84
2023/12/01 01:00:40;;;;;;;55.97;25.50;;;;;;;1.79;nan;94884.75;5075175;28;20021;-84
2023/12/01 01:03:06;;;;;;;59.35;26.00;;;;;;;1.83;nan;94860.50;5085298;28;20037;-83
2023/12/01 01:05:32;;;;;;;51.40;25.33;;;;;;;1.63;nan;94833.91;5054314;28;20017;-84
2023/12/01 01:07:57;;;;;;;56.92;26.10;;;;;;;1.50;nan;94824.47;5056550;28;20033;-80
2023/12/01 01:10:23;;;;;;;54.97;26.45;;;;;;;1.19;nan;94790.00;5036310;28;20431;-80
2023/12/01 01:12:48;;;;;;;59.70;25.85;;;;;;;1.77;nan;94855.41;5042395;28;20119;-80
2023/12/01 01:15:14;;;;;;;56.45;25.13;;;;;;;1.44;nan;94804.47;5050029;28;20487;-80
2023/12/01 01:17:40;;;;;;;65.45;26.02;;;;;;;1.48;nan;94804.81;5036252;28;20033;-80
2023/12/01 01:20:06;;;;;;;54.55;24.63;;;;;;;1.34;nan;94822.50;5052874;28;20502;-80
2023/12/01 01:22:32;;;;;;;51.88;24.10;;;;;;;1.37;nan;94803.78;5040899;28;20024;-80
2023/12/01 01:24:58;;;;;;;53.60;24.88;;;;;;;1.44;nan;94793.22;5055913;28;20524;-80
2023/12/01 01:27:23;;;;;;;57.35;26.75;;;;;;;1.70;nan;94834.59;5055633;28;20020;-80
2023/12/01 01:29:49;;;;;;;49.05;23.67;;;;;;;1.34;nan;94764.25;5050349;28;20795;-80
2023/12/01 01:32:14;;;;;;;59.13;25.55;;;;;;;1.79;nan;94841.09;5057644;28;20078;-80
2023/12/01 01:34:40;;;;;;;52.50;25.75;;;;;;;1.76;nan;94825.84;5073876;28;20016;-80
2023/12/01 01:37:08;;;;;;;52.55;25.63;;;;;;;1.63;nan;94814.81;5055416;28;20387;-79
2023/12/01 01:39:37;;;;;;;55.55;23.77;;;;;;;1.77;nan;94813.56;5055097;28;20016;-79
2023/12/01 01:42:02;;;;;;;52.08;24.27;;;;;;;1.67;nan;94798.47;5055345;28;20074;-79
2023/12/01 01:44:28;;;;;;;57.42;25.83;;;;;;;1.77;nan;94780.38;5053243;28;20025;-79
2023/12/01 01:46:54;;;;;;;55.00;25.85;;;;;;;1.99;nan;94819.00;5053110;28;20393;-79
2023/12/01 01:49:26;;;;;;;49.25;24.25;;;;;;;1.76;nan;94844.16;5036888;28;20033;-79
2023/12/01 01:51:53;;;;;;;55.20;23.95;;;;;;;1.72;nan;94823.91;5055238;28;20039;-79
2023/12/01 01:54:25;;;;;;;47.60;23.02;;;;;;;1.49;nan;94794.13;5055124;28;20025;-79
2023/12/01 01:56:54;;;;;;;;;;;;;;;1.72;nan;94806.41;5071281;28;20017;-79
2023/12/01 01:59:21;;;;;;;54.00;24.75;;;;;;;1.81;nan;94831.19;5052673;28;19921;-79
2023/12/01 02:01:51;;;;;;;52.83;24.67;;;;;;;1.62;nan;94834.94;5053362;28;20017;-79
2023/12/01 02:04:17;;;;;;;54.92;26.60;;;;;;;1.53;nan;94804.91;5056291;28;20463;-79
2023/12/01 02:06:45;;;;;;;54.30;25.33;;;;;;;1.73;nan;94815.84;5054502;28;20082;-80
2023/12/01 02:09:15;;;;;;;57.63;25.80;;;;;;;1.55;nan;94816.75;5073298;28;20027;-79
2023/12/01 02:11:41;;;;;;;54.95;24.88;;;;;;;1.45;nan;94777.31;5060334;28;20507;-79
2023/12/01 02:14:06;;;;;;;57.28;25.40;;;;;;;1.33;nan;94741.75;5030641;28;20025;-79
2023/12/01 02:16:32;;;;;;;61.08;25.67;;;;;;;1.60;nan;94800.41;5037889;28;20021;-79
2023/12/01 02:18:58;;;;;;;50.22;24.33;;;;;;;1.63;nan;94810.38;5072452;28;20471;-80
2023/12/01 02:21:24;;;;;;;51.15;24.60;;;;;;;1.39;nan;94786.06;5054834;28;20023;-79
2023/12/01 02:23:54;;;;;;;54.53;25.33;;;;;;;1.50;nan;94790.50;5044748;28;20091;-79
2023/12/01 02:26:20;;;;;;;49.05;23.63;;;;;;;1.70;nan;94816.31;5026015;28;20037;-79
2023/12/01 02:28:47;;;;;;;53.45;24.42;;;;;;;1.75;nan;94802.56;5034917;28;20104;-80
2023/12/01 02:31:13;;;;;;;53.55;24.80;;;;;;;1.58;nan;94781.53;5041626;28;20033;-80
2023/12/01 02:33:39;;;;;;;55.92;24.77;;;;;;;1.49;nan;94781.06;5041099;28;20029;-80
2023/12/01 02:36:06;;;;;;;61.20;25.90;;;;;;;1.59;nan;94774.50;5039770;28;20416;-80
2023/12/01 02:38:33;;;;;;;60.72;24.60;;;;;;;1.67;nan;94813.34;5034141;28;20112;-80
2023/12/01 02:40:58;;;;;;;51.05;24.83;;;;;;;1.20;nan;94760.25;5035734;28;20037;-80
2023/12/01 02:43:24;;;;;;;54.83;25.85;;;;;;;1.68;nan;94815.72;5051717;28;20036;-80
2023/12/01 02:45:50;;;;;;;49.92;24.58;;;;;;;1.44;nan;94769.72;5052360;28;20113;-80
2023/12/01 02:48:16;;;;;;;58.13;24.38;;;;;;;1.19;nan;94727.31;5069623;28;20024;-80
2023/12/01 02:50:43;;;;;;;53.65;25.05;;;;;;;1.43;nan;94775.94;5072839;28;20150;-80
2023/12/01 02:53:09;;;;;;;59.75;25.98;;;;;;;1.48;nan;94755.94;5036357;28;20043;-80
2023/12/01 02:55:34;;;;;;;58.53;25.15;;;;;;;1.69;nan;94808.69;5051616;28;20115;-80
2023/12/01 02:58:00;;;;;;;52.92;23.95;;;;;;;1.17;nan;94724.91;5033569;28;20053;-80
2023/12/01 03:00:26;;;;;;;61.67;25.88;;;;;;;1.55;nan;94781.97;5031047;28;20530;-80
2023/12/01 03:02:52;;;;;;;51.78;24.63;;;;;;;1.45;nan;94781.75;5033329;28;20029;-80
2023/12/01 03:05:19;;;;;;;53.42;25.08;;;;;;;1.55;nan;94797.66;5052362;28;20086;-80
2023/12/01 03:07:46;;;;;;;64.95;24.80;;;;;;;1.31;nan;94725.50;5068359;28;20103;-80
2023/12/01 03:10:12;;;;;;;52.35;24.40;;;;;;;1.49;nan;94749.72;5072768;28;20038;-80
2023/12/01 03:12:38;;;;;;;56.00;25.23;;;;;;;1.71;nan;94780.50;5071640;28;20460;-80
2023/12/01 03:15:07;;;;;;;55.83;23.83;;;;;;;1.75;nan;94785.06;5072077;28;20055;-80
2023/12/01 03:17:32;;;;;;;52.83;24.08;;;;;;;1.70;nan;94787.53;5046903;28;20052;-80
2023/12/01 03:19:58;;;;;;;53.13;23.30;;;;;;;1.65;nan;94795.28;5052015;28;20035;-80
2023/12/01 03:22:24;;;;;;;50.25;23.25;;;;;;;1.54;nan;94755.03;5049162;28;20098;-80
2023/12/01 03:24:50;;;;;;;44.78;21.00;;;;;;;1.88;nan;94810.97;5037831;28;20557;-80
2023/12/01 03:27:17;;;;;;;52.67;22.60;;;;;;;2.00;nan;94791.84;5014882;28;20037;-80
2023/12/01 03:29:42;;;;;;;41.38;21.25;;;;;;;1.46;nan;94705.72;5059697;28;20024;-80
2023/12/01 03:32:08;;;;;;;44.45;19.83;;;;;;;1.46;nan;94705.72;5072328;28;20024;-80
2023/12/01 03:34:34;;;;;;;47.60;20.98;;;;;;;1.81;nan;94715.38;5053721;28;20027;-80
2023/12/01 03:37:00;;;;;;;43.30;21.55;;;;;;;1.94;nan;94749.91;5071753;28;20024;-80
2023/12/01 03:39:26;;;;;;;42.35;20.35;;;;;;;1.91;nan;94742.50;5053645;28;20071;-80
2023/12/01 03:41:52;;;;;;;42.40;19.50;;;;;;;2.20;nan;94787.84;5059285;28;20087;-80
2023/12/01 03:44:18;;;;;;;41.53;19.08;;;;;;;2.28;nan;94774.41;5051540;28;20074;-81
2023/12/01 03:46:44;;;;;;;40.10;18.88;;;;;;;2.22;nan;94762.22;5062261;28;20157;-80
2023/12/01 03:49:10;;;;;;;37.60;18.60;;;;;;;2.26;nan;94752.91;5051381;28;20125;-80
2023/12/01 03:51:36;;;;;;;41.58;18.63;;;;;;;2.04;nan;94727.59;5057598;28;20120;-80
2023/12/01 03:54:02;;;;;;;33.85;17.63;;;;;;;2.45;nan;94773.66;5057564;28;20048;-80
2023/12/01 03:56:28;;;;;;;45.30;19.40;;;;;;;2.38;nan;94791.31;5076293;28;20395;-80
2023/12/01 03:58:55;;;;;;;39.30;19.67;;;;;;;1.54;nan;94681.88;5061028;28;20045;-80
2023/12/01 04:01:22;;;;;;;32.72;17.80;;;;;;;2.26;nan;94786.13;5055618;28;20032;-80
2023/12/01 04:03:48;;;;;;;36.60;16.75;;;;;;;2.37;nan;94774.81;5055951;28;20408;-80
2023/12/01 04:06:13;;;;;;;43.33;18.13;;;;;;;1.68;nan;94673.78;5055951;28;20076;-80
2023/12/01 04:08:39;;;;;;;37.95;17.60;;;;;;;2.33;nan;94761.41;5034875;28;20550;-80
2023/12/01 04:11:08;;;;;;;46.30;21.30;;;;;;;2.50;nan;94792.09;5037344;28;20037;-80
2023/12/01 04:13:34;;;;;;;41.17;19.88;;;;;;;2.51;nan;94791.06;5051419;28;20434;-80
2023/12/01 04:16:00;;;;;;;43.22;20.85;;;;;;;2.10;nan;94740.53;5037898;28;20059;-80
2023/12/01 04:18:29;;;;;;;41.75;19.75;;;;;;;2.16;nan;94755.31;5037764;28;20392;-80
2023/12/01 04:20:55;;;;;;;38.70;20.50;;;;;;;2.01;nan;94692.22;5037455;28;20399;-80
2023/12/01 04:23:20;;;;;;;40.40;20.08;;;;;;;2.45;nan;94818.94;5055068;28;20044;-80
2023/12/01 04:25:46;;;;;;;45.17;19.13;;;;;;;2.26;nan;94786.13;5037264;28;20036;-80
2023/12/01 04:28:13;;;;;;;42.70;20.25;;;;;;;2.06;nan;94710.63;5037110;28;20033;-80
2023/12/01 04:30:40;;;;;;;43.03;19.50;;;;;;;2.26;nan;94796.59;5067399;28;20017;-80
2023/12/01 04:33:06;;;;;;;40.00;18.05;;;;;;;2.07;nan;94735.75;5057665;28;20579;-80
2023/12/01 04:35:34;;;;;;;36.80;17.20;;;;;;;2.39;nan;94777.22;5038568;28;20052;-80
2023/12/01 04:38:03;;;;;;;37.63;18.75;;;;;;;2.35;nan;94770.88;5034385;28;20118;-79
2023/12/01 04:40:29;;;;;;;37.08;18.15;;;;;;;2.10;nan;94753.63;5036142;28;20111;-79
2023/12/01 04:42:56;;;;;;;43.95;17.38;;;;;;;1.95;nan;94735.00;5041355;28;20060;-78
2023/12/01 04:45:24;;;;;;;37.40;17.33;;;;;;;2.25;nan;94760.97;5057683;28;20035;-78
2023/12/01 04:47:51;;;;;;;32.97;16.58;;;;;;;2.24;nan;94796.00;5039368;28;20025;-79
2023/12/01 04:50:20;;;;;;;33.42;15.20;;;;;;;1.90;nan;94690.47;5057917;28;20090;-78
2023/12/01 04:52:47;;;;;;;31.45;16.00;;;;;;;2.12;nan;94742.94;5054963;28;20028;-78
2023/12/01 04:55:18;;;;;;;33.28;15.85;;;;;;;2.44;nan;94769.47;5055142;28;20036;-78
2023/12/01 04:57:44;;;;;;;36.58;15.85;;;;;;;2.29;nan;94705.31;5038924;28;20033;-79
2023/12/01 05:00:25;;;;;;;31.42;15.02;;;;;;;2.59;nan;94760.09;5046839;28;20055;-78
2023/12/01 05:03:05;;;;;;;35.88;15.73;;;;;;;2.71;nan;94768.69;5058910;28;20035;-78
2023/12/01 05:05:33;;;;;;;24.63;12.85;;;;;;;2.79;nan;94748.38;5067386;28;20111;-78
2023/12/01 05:08:00;;;;;;;26.65;12.40;;;;;;;2.56;nan;94708.19;5053923;28;20054;-79
2023/12/01 05:10:29;;;;;;;25.88;13.18;;;;;;;2.78;nan;94739.72;5055309;28;20506;-78
2023/12/01 05:13:00;;;;;;;28.13;12.38;;;;;;;3.02;nan;94746.44;5052290;28;20071;-78
2023/12/01 05:15:30;;;;;;;21.52;11.93;;;;;;;3.12;nan;94798.22;5031711;28;20033;-78
2023/12/01 05:18:06;;;;;;;25.48;12.60;;;;;;;2.88;nan;94760.88;5051047;28;20032;-78
2023/12/01 05:20:32;;;;;;;23.85;11.43;;;;;;;3.02;nan;94762.16;5036352;28;22902;-79
2023/12/01 05:23:07;;;;;;;29.90;13.77;;;;;;;3.28;nan;94757.34;5021364;28;20031;-80
2023/12/01 05:25:33;;;;;;;27.10;12.60;;;;;;;3.30;nan;94765.75;5009582;28;20028;-81
2023/12/01 05:28:02;;;;;;;26.33;12.30;;;;;;;3.30;nan;94789.31;5025198;28;20083;-80
2023/12/01 05:30:30;;;;;;;34.72;13.65;;;;;;;2.91;nan;94701.97;5011974;28;20059;-81
2023/12/01 05:32:58;;;;;;;21.83;12.73;;;;;;;2.50;nan;94628.00;4996302;28;20396;-81
2023/12/01 05:35:24;;;;;;;25.02;12.50;;;;;;;3.21;nan;94749.59;5013183;28;20033;-81
2023/12/01 05:37:52;;;;;;;27.63;13.65;;;;;;;3.39;nan;94753.84;5014272;28;20406;-78
2023/12/01 05:40:24;;;;;;;27.45;12.82;;;;;;;3.40;nan;94795.53;5008882;28;20041;-79
2023/12/01 05:42:53;;;;;;;22.67;13.02;;;;;;;3.45;nan;94797.44;5035263;28;20035;-79
2023/12/01 05:45:20;;;;;;;31.48;14.18;;;;;;;3.10;nan;94703.34;5011121;28;20068;-80
2023/12/01 05:47:48;;;;;;;24.35;13.20;;;;;;;3.06;nan;94718.72;5006676;28;20048;-80
2023/12/01 05:50:20;;;;;;;28.33;13.93;;;;;;;3.40;nan;94774.56;4998291;28;20042;-80
2023/12/01 05:52:48;;;;;;;42.28;15.57;;;;;;;3.36;nan;94765.56;5027833;28;20017;-80
2023/12/01 05:55:18;;;;;;;33.97;13.35;;;;;;;3.29;nan;94770.19;5013140;28;20094;-80
2023/12/01 05:57:45;;;;;;;35.00;13.80;;;;;;;3.33;nan;94760.81;5008497;28;20563;-81
2023/12/01 06:00:31;;;;;;;32.67;14.77;;;;;;;3.16;nan;94752.16;5003493;28;20055;-80
2023/12/01 06:02:59;;;;;;;27.42;12.18;;;;;;;3.35;nan;94748.28;5028094;28;20045;-81
2023/12/01 06:05:26;;;;;;;28.13;12.07;;;;;;;3.07;nan;94756.19;5004411;28;20044;-82
2023/12/01 06:07:54;;;;;;;35.42;13.40;;;;;;;3.23;nan;94770.34;5005433;28;20053;-80
2023/12/01 06:10:21;;;;;;;26.17;13.52;;;;;;;2.66;nan;94676.16;5017661;28;20097;-80
2023/12/01 06:12:47;;;;;;;25.73;12.48;;;;;;;3.19;nan;94743.84;5026729;28;20181;-80
2023/12/01 06:15:16;;;;;;;26.67;12.55;;;;;;;3.04;nan;94715.56;5026713;28;20546;-80
2023/12/01 06:17:43;;;;;;;26.05;12.80;;;;;;;2.99;nan;94675.38;5022117;28;20064;-79
2023/12/01 06:20:17;;;;;;;29.58;15.82;;;;;;;3.55;nan;94794.19;5043173;28;20159;-80
2023/12/01 06:23:05;;;;;;;26.02;13.98;;;;;;;3.02;nan;94694.03;5001606;28;20036;-80
2023/12/01 06:25:32;;;;;;;24.65;14.00;;;;;;;3.01;nan;94720.47;5007543;28;20033;-80
2023/12/01 06:27:59;;;;;;;26.33;14.88;;;;;;;3.20;nan;94736.78;5034141;28;20549;-79
2023/12/01 06:30:27;;;;;;;29.38;12.82;;;;;;;3.07;nan;94686.25;5024958;28;20124;-79
2023/12/01 06:32:53;;;;;;;32.10;15.02;;;;;;;3.32;nan;94772.34;5027509;28;20032;-79
2023/12/01 06:35:20;;;;;;;29.45;14.60;;;;;;;3.14;nan;94719.34;5023959;28;20106;-79
2023/12/01 06:37:47;;;;;;;31.75;14.85;;;;;;;3.69;nan;94787.59;5006857;28;20115;-80
2023/12/01 06:40:17;;;;;;;30.80;13.93;;;;;;;3.67;nan;94793.06;5016924;28;20045;-79
2023/12/01 06:42:52;;;;;;;30.05;14.73;;;;;;;3.77;nan;94800.28;5020942;28;20020;-80
2023/12/01 06:45:19;;;;;;;31.08;14.40;;;;;;;3.81;nan;94767.31;5018678;28;20141;-81
2023/12/01 06:47:47;;;;;;;26.38;13.68;;;;;;;3.55;nan;94728.63;5015405;28;20075;-81
2023/12/01 06:50:15;;;;;;;35.95;15.70;;;;;;;3.57;nan;94713.47;5035337;28;20034;-82
2023/12/01 06:52:42;;;;;;;42.22;17.50;;;;;;;3.56;nan;94711.88;5017195;28;20033;-82
2023/12/01 06:55:08;;;;;;;37.78;17.30;;;;;;;3.91;nan;94762.19;5042822;28;20028;-81
2023/12/01 06:57:38;;;;;;;37.63;16.55;;;;;;;3.89;nan;94791.28;5040442;28;20028;-80
2023/12/01 07:00:09;;;;;;;31.13;16.27;;;;;;;3.98;nan;94783.81;5016872;28;20041;-80
2023/12/01 07:02:38;;;;;;;30.73;15.93;;;;;;;3.75;nan;94766.44;5017471;28;20072;-81
2023/12/01 07:05:05;;;;;;;33.50;16.00;;;;;;;3.88;nan;94767.94;5030395;28;20593;-81
2023/12/01 07:07:31;;;;;;;31.77;16.20;;;;;;;3.82;nan;94785.41;5043663;28;20029;-82
2023/12/01 07:09:58;;;;;;;32.78;17.20;;;;;;;3.46;nan;94738.72;5022568;28;20044;-82
2023/12/01 07:12:23;;;;;;;40.20;15.82;;;;;;;3.27;nan;94722.47;4992944;28;20036;-82
2023/12/01 07:14:49;;;;;;;34.30;17.50;;;;;;;3.88;nan;94776.59;4992819;28;20044;-81
2023/12/01 07:17:15;;;;;;;40.80;17.75;;;;;;;3.47;nan;94711.50;5000605;28;20489;-82
2023/12/01 07:19:40;;;;;;;51.75;20.85;;;;;;;3.76;nan;94748.88;5008975;28;20044;-82
2023/12/01 07:22:07;;;;;;;45.17;20.52;;;;;;;3.76;nan;94718.19;4992712;28;20094;-81
2023/12/01 07:24:33;;;;;;;44.10;20.77;;;;;;;4.05;nan;94776.53;5016998;28;20522;-80
2023/12/01 07:26:58;;;;;;;40.83;19.90;;;;;;;4.13;nan;94767.47;5031258;28;20039;-85
2023/12/01 07:29:24;;;;;;;48.47;22.45;;;;;;;4.10;nan;94762.72;5058450;22;20068;-80
2023/12/01 07:31:51;;;;;;;44.17;20.80;;;;;;;3.96;nan;94746.53;5033968;28;20028;-79
2023/12/01 07:34:18;;;;;;;46.42;21.10;;;;;;;3.82;nan;94724.28;5045926;28;20072;-79
2023/12/01 07:36:44;;;;;;;41.80;22.65;;;;;;;4.22;nan;94769.44;5046909;28;20081;-79
2023/12/01 07:39:10;;;;;;;44.88;20.13;;;;;;;3.94;nan;94724.19;5050033;28;20048;-79
2023/12/01 07:41:35;;;;;;;37.90;19.45;;;;;;;4.30;nan;94762.97;5047380;28;20407;-79
2023/12/01 07:44:02;;;;;;;37.47;18.75;;;;;;;4.35;nan;94768.25;5031929;28;20071;-79
2023/12/01 07:46:32;;;;;;;38.83;17.35;;;;;;;4.10;nan;94749.59;5051655;28;20033;-78
2023/12/01 07:48:59;;;;;;;35.20;18.58;;;;;;;4.25;nan;94760.28;5037033;28;20032;-79
2023/12/01 07:51:25;;;;;;;46.15;21.70;;;;;;;4.59;nan;94827.38;5047782;28;20029;-79
2023/12/01 07:53:51;;;;;;;51.35;26.30;;;;;;;3.80;nan;94703.56;5026798;28;20025;-79
2023/12/01 07:56:23;;;;;;;54.03;25.35;;;;;;;4.46;nan;94801.50;5020281;28;20025;-80
2023/12/01 07:58:49;;;;;;;56.85;25.35;;;;;;;4.37;nan;94729.44;5041984;28;20058;-78
2023/12/01 08:01:15;;;;;;;60.75;29.33;;;;;;;4.53;nan;94761.91;5041871;28;20047;-79
2023/12/01 08:03:47;;;;;;;55.03;28.17;;;;;;;4.35;nan;94773.50;5050921;28;20057;-79
2023/12/01 08:06:15;;;;;;;;;;;;;;;4.54;nan;94808.16;5013607;28;20041;-78
2023/12/01 08:08:44;;;;;;;60.25;29.75;;;;;;;4.31;nan;94792.63;5048794;28;21037;-79
2023/12/01 08:11:09;;;;;;;49.85;27.15;;;;;;;4.46;nan;94813.84;5015968;28;20494;-79
2023/12/01 08:13:35;;;;;;;49.42;25.13;;;;;;;4.15;nan;94754.91;5012490;28;20037;-79
2023/12/01 08:16:01;;;;;;;45.53;25.05;;;;;;;4.47;nan;94755.81;4995989;28;20067;-80
2023/12/01 08:18:26;;;;;;;54.28;26.65;;;;;;;4.59;nan;94808.19;4994185;28;20025;-80
2023/12/01 08:20:52;;;;;;;62.50;26.67;;;;;;;4.19;nan;94730.56;4986732;28;20064;-79
2023/12/01 08:23:18;;;;;;;49.22;24.48;;;;;;;4.65;nan;94817.75;5019482;28;20088;-79
2023/12/01 08:25:43;;;;;;;47.83;24.52;;;;;;;4.01;nan;94737.94;5007437;28;20105;-79
2023/12/01 08:28:09;;;;;;;48.90;23.85;;;;;;;4.74;nan;94850.41;5044036;28;20035;-80
2023/12/01 08:30:36;;;;;;;52.17;25.08;;;;;;;4.81;nan;94831.84;5026583;28;20158;-80
2023/12/01 08:33:02;;;;;;;44.10;21.00;;;;;;;4.64;nan;94793.31;5043350;28;20115;-79
2023/12/01 08:35:27;;;;;;;45.60;21.58;;;;;;;4.68;nan;94761.28;5040315;28;20795;-78
2023/12/01 08:37:53;;;;;;;41.78;21.58;;;;;;;4.76;nan;94782.66;5022473;28;20041;-78
2023/12/01 08:40:19;;;;;;;47.08;20.20;;;;;;;4.90;nan;94852.19;5020107;28;20059;-79
2023/12/01 08:42:45;;;;;;;40.17;15.70;;;;;;;4.32;nan;94712.84;5032556;28;20660;-80
2023/12/01 08:45:11;;;;;;;35.65;16.02;;;;;;;5.06;nan;94808.47;5025803;28;20033;-80
2023/12/01 08:47:37;;;;;;;34.97;16.15;;;;;;;4.90;nan;94767.31;5046497;28;20040;-81
2023/12/01 08:50:03;;;;;;;30.48;14.27;;;;;;;5.04;nan;94758.78;5046224;28;20065;-81
2023/12/01 08:52:29;;;;;;;29.48;15.18;;;;;;;5.23;nan;94758.41;5025095;28;20534;-81
2023/12/01 08:54:54;;;;;;;32.78;14.75;;;;;;;5.48;nan;94803.34;5053978;28;20033;-81
2023/12/01 08:57:20;;;;;;;30.17;14.88;;;;;;;5.30;nan;94735.34;5044829;28;20043;-81
2023/12/01 08:59:46;;;;;;;27.65;13.13;;;;;;;5.44;nan;94737.28;5047205;28;20028;-81
2023/12/01 09:02:11;;;;;;;25.55;12.82;;;;;;;5.56;nan;94736.34;5011868;28;20049;-81
2023/12/01 09:04:37;;;;;;;28.15;12.43;;;;;;;5.10;nan;94649.25;5047863;28;20045;-81
2023/12/01 09:07:04;;;;;;;23.83;12.13;;;;;;;5.27;nan;94673.53;5043235;28;20033;-81
2023/12/01 09:09:30;;;;;;;27.05;12.75;;;;;;;5.93;nan;94754.75;5029991;28;20060;-81
2023/12/01 09:11:55;;;;;;;29.20;14.13;;;;;;;6.06;nan;94731.41;5047787;28;20045;-81
2023/12/01 09:14:21;;;;;;;24.92;12.20;;;;;;;6.01;nan;94720.06;5034465;28;20432;-81
2023/12/01 09:16:46;;;;;;;27.65;12.95;;;;;;;5.95;nan;94674.47;5030467;28;20033;-80
2023/12/01 09:19:13;;;;;;;22.45;11.60;;;;;;;6.55;nan;94752.97;5033787;28;20454;-81
2023/12/01 09:21:38;;;;;;;23.05;11.55;;;;;;;6.40;nan;94737.09;5044238;23;20061;-78
2023/12/01 09:24:04;;;;;;;33.17;14.43;;;;;;;6.19;nan;94657.22;5024737;28;20098;-79
2023/12/01 09:26:30;;;;;;;32.33;13.48;;;;;;;6.12;nan;94655.88;5043086;28;20036;-79
2023/12/01 09:28:55;;;;;;;27.60;11.50;;;;;;;6.47;nan;94711.31;5015996;28;20033;-80
2023/12/01 09:31:22;;;;;;;27.45;13.48;;;;;;;6.80;nan;94749.59;5042606;28;20044;-79
2023/12/01 09:33:48;;;;;;;46.03;22.05;;;;;;;6.77;nan;94759.88;5025402;28;20065;-81
2023/12/01 09:36:17;;;;;;;46.00;22.63;;;;;;;6.77;nan;94786.22;5046021;28;20080;-80
2023/12/01 09:38:43;;;;;;;50.28;21.35;;;;;;;6.51;nan;94712.38;5043937;28;20071;-78
2023/12/01 09:41:10;;;;;;;42.58;21.70;;;;;;;6.38;nan;94701.53;5021139;28;20040;-79
2023/12/01 09:43:36;;;;;;;45.97;22.17;;;;;;;6.30;nan;94681.75;5025013;28;20032;-79
2023/12/01 09:46:02;;;;;;;43.38;21.48;;;;;;;6.91;nan;94771.50;5014307;28;20037;-79
2023/12/01 09:48:30;;;;;;;39.92;21.88;;;;;;;6.51;nan;94716.84;5029392;28;20033;-79
2023/12/01 09:50:56;;;;;;;45.55;21.92;;;;;;;6.88;nan;94766.75;5045671;28;20092;-80
2023/12/01 09:53:23;;;;;;;46.03;21.67;;;;;;;6.88;nan;94745.66;4978444;28;20572;-81
2023/12/01 09:55:49;;;;;;;42.90;21.77;;;;;;;6.73;nan;94743.78;5001919;28;20037;-81
2023/12/01 09:58:16;;;;;;;43.97;21.70;;;;;;;7.01;nan;94771.53;5021166;28;20110;-80
2023/12/01 10:00:41;;;;;;;39.65;19.30;;;;;;;7.11;nan;94754.94;5032715;28;20052;-80
2023/12/01 10:03:07;;;;;;;47.03;22.83;;;;;;;6.76;nan;94710.84;5014587;28;20037;-82
2023/12/01 10:05:34;;;;;;;41.63;21.08;;;;;;;6.93;nan;94733.28;5029908;28;20036;-81
2023/12/01 10:08:00;;;;;;;34.90;17.35;;;;;;;7.20;nan;94756.00;5037851;28;20037;-81
2023/12/01 10:10:26;;;;;;;38.58;17.83;;;;;;;6.93;nan;94712.22;5035606;28;20467;-81
2023/12/01 10:12:56;;;;;;;32.90;17.27;;;;;;;7.27;nan;94765.25;5053729;28;20081;-80
2023/12/01 10:15:24;;;;;;;43.03;22.08;;;;;;;7.00;nan;94684.78;5062671;28;20033;-84
2023/12/01 10:17:54;;;;;;;33.15;15.80;;;;;;;7.62;nan;94761.84;5050747;28;20025;-83
2023/12/01 10:20:23;;;;;;;33.05;15.80;;;;;;;7.39;nan;94656.84;5052504;28;20053;-81
2023/12/01 10:22:49;;;;;;;27.65;14.25;;;;;;;8.69;nan;94766.91;5041483;28;20082;-81
2023/12/01 10:25:15;;;;;;;28.30;12.63;;;;;;;9.17;nan;94662.13;5008335;28;20035;-82
2023/12/01 10:27:40;;;;;;;27.40;13.25;;;;;;;10.18;nan;94692.19;5039372;28;20124;-80
2023/12/01 10:30:14;;;;;;;25.50;12.95;;;;;;;10.96;nan;94705.00;5022330;28;20051;-80
2023/12/01 10:32:41;;;;;;;24.65;11.65;;;;;;;11.57;nan;94724.25;5022912;28;20028;-81
2023/12/01 10:35:07;;;;;;;19.65;10.90;;;;;;;-143.51;100.00;62207.84;5042452;28;20120;-79
2023/12/01 10:37:37;;;;;;;24.25;9.40;;;;;;;-143.51;100.00;62207.84;4984720;28;20043;-79
2023/12/01 10:40:05;;;;;;;15.50;8.10;;;;;;;-143.51;100.00;62207.84;4980414;28;20064;-80
2023/12/01 10:42:33;;;;;;;19.63;9.43;;;;;;;-143.51;100.00;62207.84;5009121;28;20063;-79
2023/12/01 10:45:00;;;;;;;18.85;9.77;;;;;;;-143.51;100.00;62207.84;5001585;28;20144;-80
2023/12/01 10:47:27;;;;;;;19.80;10.15;;;;;;;-143.51;100.00;62207.84;5022628;28;20032;-82
2023/12/01 10:49:55;;;;;;;19.50;10.73;;;;;;;-143.51;100.00;62207.84;5007143;28;20075;-81
2023/12/01 10:52:21;;;;;;;28.92;12.65;;;;;;;-143.51;100.00;62207.84;5022437;28;20044;-80
2023/12/01 10:54:47;;;;;;;34.00;13.65;;;;;;;-143.51;100.00;62207.84;5006819;28;20423;-83
2023/12/01 10:57:35;;;;;;;29.10;14.55;;;;;;;-143.51;100.00;62207.84;5017811;28;20037;-82
2023/12/01 11:00:09;;;;;;;33.38;15.98;;;;;;;-143.51;100.00;62207.84;5048161;28;20475;-81
2023/12/01 11:02:38;;;;;;;30.60;15.40;;;;;;;-143.51;100.00;62207.84;5035028;28;20025;-83
2023/12/01 11:05:07;;;;;;;26.40;14.40;;;;;;;-143.51;100.00;62207.84;5016033;28;20110;-83
2023/12/01 11:08:12;;;;;;;29.33;14.55;;;;;;;-143.51;100.00;62207.84;5028964;28;20036;-81
2023/12/01 11:10:49;;;;;;;28.02;13.52;;;;;;;-143.51;100.00;62207.84;5036273;28;20056;-82
2023/12/01 11:13:33;;;;;;;30.77;14.52;;;;;;;-143.51;100.00;62207.84;5053494;28;20025;-83
2023/12/01 11:16:00;;;;;;;29.17;14.98;;;;;;;-143.51;100.00;62207.84;5036671;28;20079;-80
2023/12/01 11:18:27;;;;;;;30.45;15.82;;;;;;;-143.51;100.00;62207.84;5025275;28;20039;-84
2023/12/01 11:20:54;;;;;;;34.00;17.17;;;;;;;-143.51;100.00;62207.84;5033382;28;20059;-82
2023/12/01 11:23:20;;;;;;;38.13;16.98;;;;;;;-143.51;100.00;62207.84;5028784;28;20565;-81
2023/12/01 11:25:53;;;;;;;35.70;18.00;;;;;;;-143.51;100.00;62207.84;5035700;28;20033;-82
2023/12/01 11:33:52;;;;;;;35.58;17.70;;;;;;;-143.51;100.00;62207.84;5025772;28;20045;-84
2023/12/01 11:36:38;;;;;;;42.85;18.95;;;;;;;-143.51;100.00;62207.84;5059524;23;20458;-86
2023/12/01 11:41:41;;;;;;;31.50;16.60;;;;;;;-143.51;100.00;62207.84;5044916;28;20061;-86
2023/12/01 11:44:24;;;;;;;38.33;17.88;;;;;;;-143.51;100.00;62207.84;5047769;28;20833;-87
2023/12/01 11:46:57;;;;;;;38.38;18.27;;;;;;;-143.51;100.00;62207.84;5051716;28;20068;-86